createdAt,value
2022-12-01T00:00:30.141Z,12.35
2022-12-01T00:03:00.435Z,12.13
2022-12-01T00:05:30.029Z,13.10
2022-12-01T00:08:00.632Z,13.57
2022-12-01T00:10:30.634Z,14.20
2022-12-01T00:13:02.187Z,15.05
2022-12-01T00:15:36.312Z,16.38
2022-12-01T00:18:06.405Z,16.02
2022-12-01T00:20:36.657Z,17.10
2022-12-01T00:23:09.629Z,17.50
2022-12-01T00:25:39.714Z,17.30
2022-12-01T00:28:10.081Z,18.70
2022-12-01T00:30:39.578Z,19.50
2022-12-01T00:33:09.636Z,18.20
2022-12-01T00:35:39.211Z,17.52
2022-12-01T00:38:09.219Z,19.17
2022-12-01T00:40:39.222Z,20.33
2022-12-01T00:43:08.763Z,20.52
2022-12-01T00:45:38.276Z,19.40
2022-12-01T00:48:08.278Z,19.08
2022-12-01T00:50:37.807Z,20.73
2022-12-01T00:53:07.218Z,21.13
2022-12-01T00:55:37.302Z,21.63
2022-12-01T00:58:07.948Z,20.85
2022-12-01T01:00:39.833Z,21.60
2022-12-01T01:03:10.129Z,10.55
2022-12-01T01:05:41.164Z,7.25
2022-12-01T01:08:15.612Z,7.60
2022-12-01T01:10:46.483Z,9.57
2022-12-01T01:13:16.661Z,8.00
2022-12-01T01:15:46.677Z,10.50
2022-12-01T01:18:16.210Z,10.70
2022-12-01T01:20:45.643Z,9.32
2022-12-01T01:23:15.584Z,9.38
2022-12-01T01:25:45.149Z,9.75
2022-12-01T01:28:14.604Z,11.63
2022-12-01T01:30:44.500Z,10.30
2022-12-01T01:33:14.540Z,10.15
2022-12-01T01:35:44.444Z,12.07
2022-12-01T01:38:14.494Z,10.55
2022-12-01T01:40:46.012Z,10.70
2022-12-01T01:43:18.809Z,11.85
2022-12-01T01:45:48.871Z,11.82
2022-12-01T01:48:18.849Z,12.15
2022-12-01T01:50:48.872Z,11.70
2022-12-01T01:53:19.462Z,11.32
2022-12-01T01:55:48.950Z,11.07
2022-12-01T01:58:18.493Z,13.27
2022-12-01T02:00:47.965Z,15.00
2022-12-01T02:03:17.870Z,14.20
2022-12-01T02:05:48.089Z,11.00
2022-12-01T02:08:17.668Z,13.77
2022-12-01T02:11:13.306Z,12.07
2022-12-01T02:14:06.385Z,14.60
2022-12-01T02:17:11.283Z,13.95
2022-12-01T02:20:00.154Z,13.80
2022-12-01T02:22:39.520Z,12.45
2022-12-01T02:25:43.490Z,13.98
2022-12-01T02:28:42.681Z,13.75
2022-12-01T02:31:38.294Z,13.35
2022-12-01T02:34:28.689Z,14.23
2022-12-01T02:37:03.337Z,12.23
2022-12-01T02:39:36.591Z,12.13
2022-12-01T02:44:41.422Z,12.77
2022-12-01T02:47:15.430Z,13.73
2022-12-01T02:49:52.537Z,12.15
2022-12-01T02:52:22.703Z,14.55
2022-12-01T02:54:52.328Z,16.58
2022-12-01T02:57:23.830Z,14.55
2022-12-01T02:59:54.710Z,13.43
2022-12-01T03:02:43.432Z,16.75
2022-12-01T03:05:51.806Z,14.90
2022-12-01T03:09:01.065Z,14.75
2022-12-01T03:11:58.395Z,14.43
2022-12-01T03:14:59.830Z,13.63
2022-12-01T03:17:31.921Z,13.35
2022-12-01T03:20:09.764Z,11.73
2022-12-01T03:22:46.219Z,12.43
2022-12-01T03:25:16.280Z,10.32
2022-12-01T03:28:13.579Z,10.52
2022-12-01T03:30:37.072Z,7.35
2022-12-01T03:33:10.502Z,7.07
2022-12-01T03:36:20.084Z,5.80
2022-12-01T03:38:52.515Z,6.07
2022-12-01T03:41:25.610Z,5.10
2022-12-01T03:43:57.725Z,4.35
2022-12-01T03:46:34.605Z,3.92
2022-12-01T03:49:06.295Z,3.30
2022-12-01T03:51:56.983Z,3.25
2022-12-01T03:55:02.628Z,2.33
2022-12-01T03:57:35.947Z,2.38
2022-12-01T04:02:42.337Z,1.70
2022-12-01T04:05:11.928Z,1.92
2022-12-01T04:07:41.466Z,1.63
2022-12-01T04:10:11.661Z,0.95
2022-12-01T04:12:41.050Z,0.93
2022-12-01T04:15:13.674Z,0.70
2022-12-01T04:17:47.196Z,0.73
2022-12-01T04:20:17.528Z,0.60
2022-12-01T04:22:47.038Z,0.52
2022-12-01T04:25:17.146Z,0.70
2022-12-01T04:27:47.838Z,0.75
2022-12-01T04:30:18.471Z,3.08
2022-12-01T04:32:48.329Z,4.95
2022-12-01T04:35:17.949Z,4.35
2022-12-01T04:37:47.435Z,5.35
2022-12-01T04:40:17.133Z,5.97
2022-12-01T04:42:47.198Z,6.10
2022-12-01T04:45:17.238Z,5.53
2022-12-01T04:47:46.761Z,5.57
2022-12-01T04:50:16.644Z,5.82
2022-12-01T04:52:49.443Z,5.43
2022-12-01T04:55:19.687Z,5.57
2022-12-01T04:57:49.642Z,5.15
2022-12-01T05:00:20.051Z,6.22
2022-12-01T05:02:50.248Z,4.15
2022-12-01T05:05:21.340Z,4.90
2022-12-01T05:07:51.347Z,4.47
2022-12-01T05:10:20.949Z,4.88
2022-12-01T05:12:51.072Z,5.03
2022-12-01T05:15:21.119Z,4.65
2022-12-01T05:17:51.134Z,4.22
2022-12-01T05:20:41.334Z,4.78
2022-12-01T05:23:16.386Z,3.85
2022-12-01T05:25:47.065Z,3.33
2022-12-01T05:28:16.675Z,3.67
2022-12-01T05:30:46.950Z,4.03
2022-12-01T05:33:16.956Z,2.83
2022-12-01T05:35:46.456Z,3.25
2022-12-01T05:38:15.880Z,3.35
2022-12-01T05:40:50.283Z,5.85
2022-12-01T05:43:25.242Z,7.57
2022-12-01T05:45:58.750Z,5.75
2022-12-01T05:48:29.885Z,5.72
2022-12-01T05:51:00.121Z,7.85
2022-12-01T05:53:29.827Z,6.65
2022-12-01T05:55:59.715Z,5.38
2022-12-01T05:58:29.729Z,4.78
2022-12-01T06:00:59.351Z,4.55
2022-12-01T06:03:29.277Z,4.35
2022-12-01T06:05:59.287Z,3.20
2022-12-01T06:08:29.370Z,3.00
2022-12-01T06:10:58.956Z,2.17
2022-12-01T06:13:29.006Z,2.42
2022-12-01T06:15:59.810Z,1.70
2022-12-01T06:18:32.666Z,1.75
2022-12-01T06:21:03.420Z,1.90
2022-12-01T06:23:33.681Z,1.70
2022-12-01T06:26:03.966Z,1.52
2022-12-01T06:28:33.966Z,1.67
2022-12-01T06:31:04.678Z,1.45
2022-12-01T06:33:35.303Z,1.25
2022-12-01T06:36:08.691Z,1.23
2022-12-01T06:38:38.475Z,1.08
2022-12-01T06:41:08.337Z,1.10
2022-12-01T06:43:41.859Z,1.25
2022-12-01T06:46:11.955Z,1.30
2022-12-01T06:48:42.055Z,0.80
2022-12-01T06:51:12.145Z,0.70
2022-12-01T06:53:41.693Z,0.47
2022-12-01T06:56:11.919Z,0.50
2022-12-01T06:58:41.761Z,0.55
2022-12-01T07:01:12.628Z,0.45
2022-12-01T07:03:44.041Z,0.80
2022-12-01T07:06:14.024Z,0.43
2022-12-01T07:08:44.151Z,0.70
2022-12-01T07:11:15.222Z,3.17
2022-12-01T07:13:50.122Z,0.60
2022-12-01T07:16:20.017Z,0.65
2022-12-01T07:18:49.630Z,0.30
2022-12-01T07:21:19.565Z,0.20
2022-12-01T07:23:49.586Z,0.40
2022-12-01T07:26:19.943Z,0.40
2022-12-01T07:28:49.945Z,0.25
2022-12-01T07:31:20.527Z,0.40
2022-12-01T07:33:50.118Z,0.60
2022-12-01T07:36:19.499Z,0.60
2022-12-01T07:38:48.996Z,0.25
2022-12-01T07:41:22.384Z,0.40
2022-12-01T07:43:53.294Z,0.63
2022-12-01T07:46:24.477Z,0.40
2022-12-01T07:48:55.385Z,0.32
2022-12-01T07:51:26.433Z,0.22
2022-12-01T07:53:56.216Z,1.02
2022-12-01T07:56:26.185Z,0.20
2022-12-01T07:58:55.892Z,0.20
2022-12-01T08:01:26.360Z,0.20
2022-12-01T08:03:57.740Z,0.10
2022-12-01T08:06:27.667Z,0.10
2022-12-01T08:08:58.365Z,0.00
2022-12-01T08:11:30.488Z,0.15
2022-12-01T08:14:00.619Z,0.20
2022-12-01T08:16:31.565Z,0.40
2022-12-01T08:19:01.103Z,0.55
2022-12-01T08:21:32.215Z,0.22
2022-12-01T08:24:02.083Z,0.30
2022-12-01T08:26:32.104Z,0.40
2022-12-01T08:29:02.462Z,0.10
2022-12-01T08:31:34.141Z,0.30
2022-12-01T08:34:07.083Z,0.10
2022-12-01T08:36:36.859Z,0.10
2022-12-01T08:39:06.687Z,0.10
2022-12-01T08:41:36.751Z,0.13
2022-12-01T08:44:06.756Z,0.10
2022-12-01T08:46:37.279Z,0.30
2022-12-01T08:49:07.636Z,0.17
2022-12-01T08:51:37.157Z,0.20
2022-12-01T08:54:07.654Z,0.10
2022-12-01T08:56:41.158Z,0.20
2022-12-01T08:59:14.028Z,0.10
2022-12-01T09:01:56.342Z,0.30
2022-12-01T09:04:26.525Z,0.52
2022-12-01T09:06:57.374Z,0.98
2022-12-01T09:09:29.167Z,0.40
2022-12-01T09:11:59.370Z,0.70
2022-12-01T09:14:28.949Z,1.00
2022-12-01T09:16:59.035Z,1.63
2022-12-01T09:19:29.844Z,2.05
2022-12-01T09:22:00.400Z,0.80
2022-12-01T09:24:30.123Z,1.27
2022-12-01T09:27:00.056Z,1.35
2022-12-01T09:29:30.078Z,0.85
2022-12-01T09:32:00.862Z,1.27
2022-12-01T09:34:30.446Z,1.05
2022-12-01T09:37:01.353Z,0.60
2022-12-01T09:39:37.972Z,0.75
2022-12-01T09:42:14.111Z,0.80
2022-12-01T09:44:50.809Z,0.60
2022-12-01T09:47:21.615Z,0.77
2022-12-01T09:50:08.815Z,0.40
2022-12-01T09:52:43.330Z,0.38
2022-12-01T09:55:18.708Z,0.20
2022-12-01T09:57:49.453Z,0.77
2022-12-01T10:00:21.997Z,0.43
2022-12-01T10:03:31.544Z,0.57
2022-12-01T10:06:29.275Z,0.70
2022-12-01T10:09:20.360Z,0.40
2022-12-01T10:11:49.868Z,0.52
2022-12-01T10:14:21.174Z,0.47
2022-12-01T10:17:04.258Z,0.57
2022-12-01T10:20:08.772Z,0.68
2022-12-01T10:23:09.480Z,0.60
2022-12-01T10:26:02.848Z,1.15
2022-12-01T10:28:38.492Z,0.40
2022-12-01T10:31:52.389Z,0.45
2022-12-01T10:34:25.472Z,0.45
2022-12-01T10:39:31.214Z,0.70
2022-12-01T10:42:17.407Z,0.40
2022-12-01T10:44:47.493Z,0.70
2022-12-01T10:47:25.148Z,0.82
2022-12-01T10:49:55.155Z,1.55
2022-12-01T10:52:43.449Z,1.15
2022-12-01T10:55:28.868Z,1.70
2022-12-01T10:58:01.531Z,1.73
2022-12-01T11:00:58.543Z,4.40
2022-12-01T11:03:28.077Z,4.78
2022-12-01T11:06:00.893Z,3.80
2022-12-01T11:08:33.982Z,4.13
2022-12-01T11:11:04.423Z,3.17
2022-12-01T11:13:36.882Z,4.57
2022-12-01T11:16:08.021Z,5.50
2022-12-01T11:18:39.667Z,4.30
2022-12-01T11:21:14.268Z,3.15
2022-12-01T11:23:48.230Z,4.07
2022-12-01T11:26:21.542Z,4.25
2022-12-01T11:29:00.691Z,3.53
2022-12-01T11:31:51.288Z,4.20
2022-12-01T11:34:31.016Z,4.40
2022-12-01T11:37:09.114Z,3.78
2022-12-01T11:39:40.659Z,5.18
2022-12-01T11:42:27.475Z,3.67
2022-12-01T11:45:27.183Z,4.63
2022-12-01T11:48:16.086Z,4.45
2022-12-01T11:50:47.400Z,6.70
2022-12-01T11:53:34.670Z,3.83
2022-12-01T11:56:17.956Z,5.50
2022-12-01T11:58:49.333Z,4.55
2022-12-01T12:01:40.244Z,6.03
2022-12-01T12:04:37.866Z,4.60
2022-12-01T12:07:10.699Z,4.68
2022-12-01T12:10:06.687Z,6.63
2022-12-01T12:13:01.364Z,4.78
2022-12-01T12:19:11.538Z,9.43
2022-12-01T12:22:04.781Z,7.80
2022-12-01T12:24:43.557Z,7.85
2022-12-01T12:27:48.619Z,8.25
2022-12-01T12:30:27.769Z,7.28
2022-12-01T12:33:15.430Z,8.88
2022-12-01T12:36:10.567Z,9.15
2022-12-01T12:39:13.480Z,6.25
2022-12-01T12:41:51.548Z,7.40
2022-12-01T12:44:37.734Z,5.70
2022-12-01T12:47:35.014Z,5.90
2022-12-01T12:50:20.495Z,6.63
2022-12-01T12:52:52.832Z,7.85
2022-12-01T12:55:35.376Z,8.57
2022-12-01T12:58:34.244Z,9.30
2022-12-01T13:01:31.843Z,11.85
2022-12-01T13:04:23.478Z,12.27
2022-12-01T13:07:17.089Z,15.30
2022-12-01T13:09:50.007Z,15.18
2022-12-01T13:12:41.110Z,13.77
2022-12-01T13:15:17.920Z,13.45
2022-12-01T13:18:05.108Z,14.98
2022-12-01T13:20:35.136Z,15.75
2022-12-01T13:23:05.412Z,19.55
2022-12-01T13:25:40.611Z,19.13
2022-12-01T13:28:18.682Z,19.30
2022-12-01T13:31:05.600Z,19.88
2022-12-01T13:33:36.319Z,20.42
2022-12-01T13:39:08.694Z,21.88
2022-12-01T13:41:41.907Z,19.67
2022-12-01T13:44:28.638Z,17.60
2022-12-01T13:47:05.839Z,15.50
2022-12-01T13:49:43.298Z,14.63
2022-12-01T13:52:19.954Z,14.45
2022-12-01T13:55:10.805Z,18.25
2022-12-01T13:57:59.620Z,18.35
2022-12-01T14:00:34.359Z,15.73
2022-12-01T14:03:22.616Z,18.08
2022-12-01T14:05:59.455Z,16.70
2022-12-01T14:08:35.690Z,16.00
2022-12-01T14:11:09.431Z,15.25
2022-12-01T14:13:58.981Z,14.57
2022-12-01T14:16:46.753Z,15.75
2022-12-01T14:20:08.985Z,13.48
2022-12-01T14:22:48.526Z,12.43
2022-12-01T14:25:21.651Z,12.60
2022-12-01T14:28:00.096Z,12.02
2022-12-01T14:30:46.479Z,11.82
2022-12-01T14:33:42.872Z,11.68
2022-12-01T14:36:30.982Z,15.85
2022-12-01T14:39:01.203Z,16.05
2022-12-01T14:41:58.353Z,17.58
2022-12-01T14:44:37.406Z,20.25
2022-12-01T14:47:25.138Z,20.52
2022-12-01T14:50:02.775Z,20.60
2022-12-01T14:52:43.687Z,21.10
2022-12-01T14:55:24.661Z,20.33
2022-12-01T14:58:02.208Z,18.35
2022-12-01T15:00:32.308Z,17.33
2022-12-01T15:03:10.060Z,15.70
2022-12-01T15:05:41.178Z,15.38
2022-12-01T15:11:22.426Z,14.73
2022-12-01T15:13:54.366Z,13.45
2022-12-01T15:16:26.755Z,14.63
2022-12-01T15:18:56.365Z,15.47
2022-12-01T15:21:27.230Z,16.00
2022-12-01T15:24:07.451Z,16.10
2022-12-01T15:26:40.487Z,17.98
2022-12-01T15:29:17.285Z,15.95
2022-12-01T15:31:49.446Z,16.73
2022-12-01T15:34:34.091Z,18.55
2022-12-01T15:37:06.280Z,19.08
2022-12-01T15:39:38.286Z,18.75
2022-12-01T15:42:08.420Z,21.27
2022-12-01T15:44:38.968Z,19.90
2022-12-01T15:47:33.653Z,21.10
2022-12-01T15:50:03.820Z,20.33
2022-12-01T15:52:34.340Z,22.15
2022-12-01T15:55:05.225Z,19.15
2022-12-01T15:57:34.691Z,22.25
2022-12-01T16:00:05.024Z,21.05
2022-12-01T16:02:41.971Z,21.25
2022-12-01T16:05:15.287Z,20.60
2022-12-01T16:10:37.457Z,19.88
2022-12-01T16:13:43.464Z,19.73
2022-12-01T16:16:24.916Z,19.98
2022-12-01T16:19:00.268Z,19.52
2022-12-01T16:21:32.588Z,19.48
2022-12-01T16:24:06.839Z,18.98
2022-12-01T16:26:36.359Z,19.75
2022-12-01T16:29:05.896Z,19.33
2022-12-01T16:31:43.329Z,17.63
2022-12-01T16:34:44.626Z,17.50
2022-12-01T16:37:14.453Z,20.83
2022-12-01T16:39:44.565Z,24.00
2022-12-01T16:42:18.435Z,25.42
2022-12-01T16:44:48.917Z,25.90
2022-12-01T16:47:23.934Z,29.05
2022-12-01T16:49:54.187Z,29.65
2022-12-01T16:55:24.330Z,31.13
2022-12-01T16:57:54.419Z,35.20
2022-12-01T17:00:24.545Z,37.40
2022-12-01T17:02:54.117Z,41.58
2022-12-01T17:05:24.076Z,44.33
2022-12-01T17:07:54.163Z,50.10
2022-12-01T17:10:24.984Z,45.00
2022-12-01T17:12:54.977Z,47.72
2022-12-01T17:15:25.120Z,53.10
2022-12-01T17:17:55.060Z,58.95
2022-12-01T17:20:25.031Z,64.55
2022-12-01T17:22:55.113Z,62.58
2022-12-01T17:25:25.930Z,58.20
2022-12-01T17:27:55.421Z,50.00
2022-12-01T17:30:25.803Z,41.30
2022-12-01T17:32:55.942Z,34.10
2022-12-01T17:35:25.999Z,33.00
2022-12-01T17:37:55.506Z,36.05
2022-12-01T17:40:25.612Z,31.35
2022-12-01T17:42:55.353Z,28.42
2022-12-01T17:45:24.921Z,26.02
2022-12-01T17:47:56.399Z,23.35
2022-12-01T17:50:26.914Z,23.75
2022-12-01T17:52:56.867Z,22.83
2022-12-01T17:55:26.374Z,22.13
2022-12-01T17:57:56.469Z,20.90
2022-12-01T18:00:26.369Z,22.77
2022-12-01T18:02:56.471Z,23.00
2022-12-01T18:05:26.707Z,28.40
2022-12-01T18:07:57.169Z,33.45
2022-12-01T18:10:27.376Z,35.95
2022-12-01T18:12:57.763Z,36.88
2022-12-01T18:15:33.267Z,36.28
2022-12-01T18:18:04.259Z,37.20
2022-12-01T18:20:34.299Z,30.67
2022-12-01T18:23:04.609Z,24.58
2022-12-01T18:25:37.368Z,18.33
2022-12-01T18:28:07.648Z,16.85
2022-12-01T18:30:37.706Z,14.35
2022-12-01T18:33:11.636Z,14.65
2022-12-01T18:35:45.991Z,13.90
2022-12-01T18:38:15.597Z,12.55
2022-12-01T18:40:45.066Z,12.23
2022-12-01T18:43:14.524Z,12.13
2022-12-01T18:45:44.390Z,11.52
2022-12-01T18:48:14.348Z,11.63
2022-12-01T18:50:44.316Z,12.20
2022-12-01T18:53:18.881Z,12.40
2022-12-01T18:55:48.754Z,11.82
2022-12-01T18:58:19.040Z,10.35
2022-12-01T19:00:49.272Z,10.00
2022-12-01T19:03:19.518Z,10.25
2022-12-01T19:05:49.866Z,9.13
2022-12-01T19:08:20.066Z,10.25
2022-12-01T19:11:02.790Z,9.38
2022-12-01T19:13:33.181Z,10.98
2022-12-01T19:16:08.352Z,10.90
2022-12-01T19:18:39.049Z,11.68
2022-12-01T19:21:11.352Z,11.93
2022-12-01T19:23:41.416Z,10.20
2022-12-01T19:26:16.120Z,9.65
2022-12-01T19:28:49.328Z,10.23
2022-12-01T19:33:49.241Z,9.43
2022-12-01T19:36:21.171Z,10.55
2022-12-01T19:38:51.380Z,11.90
2022-12-01T19:41:21.970Z,14.80
2022-12-01T19:43:51.844Z,12.68
2022-12-01T19:46:23.125Z,13.90
2022-12-01T19:48:57.616Z,15.10
2022-12-01T19:51:37.760Z,15.82
2022-12-01T19:54:08.904Z,16.63
2022-12-01T19:56:38.843Z,17.83
2022-12-01T19:59:08.751Z,18.05
2022-12-01T20:01:38.771Z,19.95
2022-12-01T20:04:09.088Z,20.10
2022-12-01T20:06:39.355Z,21.00
2022-12-01T20:09:09.581Z,21.98
2022-12-01T20:11:39.541Z,22.58
2022-12-01T20:14:10.461Z,23.45
2022-12-01T20:16:40.476Z,22.63
2022-12-01T20:19:11.504Z,22.17
2022-12-01T20:21:45.503Z,21.90
2022-12-01T20:24:22.225Z,23.20
2022-12-01T20:26:53.609Z,22.33
2022-12-01T20:29:28.391Z,22.55
2022-12-01T20:31:59.925Z,22.38
2022-12-01T20:34:35.023Z,21.75
2022-12-01T20:37:05.377Z,21.85
2022-12-01T20:39:37.981Z,22.15
2022-12-01T20:42:10.937Z,21.48
2022-12-01T20:44:41.556Z,21.73
2022-12-01T20:47:12.255Z,22.55
2022-12-01T20:49:42.204Z,22.65
2022-12-01T20:52:11.764Z,22.15
2022-12-01T20:54:43.151Z,20.73
2022-12-01T20:57:13.194Z,21.60
2022-12-01T20:59:42.956Z,21.25
2022-12-01T21:02:12.825Z,20.13
2022-12-01T21:04:42.866Z,20.98
2022-12-01T21:07:12.927Z,20.83
2022-12-01T21:09:42.937Z,19.75
2022-12-01T21:12:38.100Z,19.92
2022-12-01T21:15:08.123Z,20.00
2022-12-01T21:17:46.729Z,20.02
2022-12-01T21:20:40.096Z,19.20
2022-12-01T21:23:14.549Z,19.33
2022-12-01T21:25:45.036Z,20.02
2022-12-01T21:28:25.104Z,19.92
2022-12-01T21:31:12.706Z,19.20
2022-12-01T21:33:43.629Z,20.13
2022-12-01T21:36:17.633Z,18.42
2022-12-01T21:38:47.490Z,18.00
2022-12-01T21:41:30.268Z,18.42
2022-12-01T21:44:13.957Z,18.53
2022-12-01T21:46:44.070Z,18.42
2022-12-01T21:49:22.213Z,18.90
2022-12-01T21:51:52.159Z,17.90
2022-12-01T21:54:22.245Z,17.95
2022-12-01T21:56:59.875Z,18.42
2022-12-01T21:59:29.464Z,18.70
2022-12-01T22:01:58.996Z,17.60
2022-12-01T22:04:32.446Z,18.60
2022-12-01T22:07:02.443Z,18.90
2022-12-01T22:09:34.678Z,17.10
2022-12-01T22:12:42.442Z,17.52
2022-12-01T22:15:25.982Z,16.45
2022-12-01T22:17:55.699Z,18.33
2022-12-01T22:20:25.223Z,17.17
2022-12-01T22:22:55.702Z,16.33
2022-12-01T22:25:28.354Z,17.40
2022-12-01T22:28:01.379Z,16.98
2022-12-01T22:30:30.898Z,17.45
2022-12-01T22:33:06.366Z,16.05
2022-12-01T22:35:46.016Z,16.67
2022-12-01T22:38:28.847Z,16.80
2022-12-01T22:41:00.105Z,15.32
2022-12-01T22:43:46.227Z,16.15
2022-12-01T22:46:34.962Z,15.32
2022-12-01T22:49:20.509Z,15.50
2022-12-01T22:52:03.896Z,16.30
2022-12-01T22:54:51.838Z,16.02
2022-12-01T22:57:25.116Z,15.15
2022-12-01T22:59:55.160Z,15.23
2022-12-01T23:02:28.499Z,15.57
2022-12-01T23:05:20.915Z,15.55
2022-12-01T23:07:51.278Z,14.52
2022-12-01T23:10:23.437Z,15.38
2022-12-01T23:12:55.441Z,14.30
2022-12-01T23:15:31.790Z,15.60
2022-12-01T23:18:21.974Z,15.20
2022-12-01T23:20:56.054Z,14.45
2022-12-01T23:23:33.180Z,13.98
2022-12-01T23:26:07.703Z,13.70
2022-12-01T23:28:39.301Z,14.15
2022-12-01T23:31:10.050Z,13.20
2022-12-01T23:33:40.446Z,15.38
2022-12-01T23:36:19.413Z,15.50
2022-12-01T23:38:50.934Z,14.13
2022-12-01T23:41:40.082Z,14.65
2022-12-01T23:44:42.304Z,15.50
2022-12-01T23:47:18.307Z,15.73
2022-12-01T23:49:48.521Z,14.45
2022-12-01T23:52:20.839Z,15.20
2022-12-01T23:54:51.200Z,16.08
2022-12-01T23:57:22.932Z,16.23
2022-12-01T23:59:56.091Z,17.63
